Time;durP1;ratioP1;P1;durP2;ratioP2;P2;SDS_P1;SDS_P2;PMS_P1;PMS_P2;Temp;Humidity;BMP_temperature;BMP_pressure;BME280_temperature;BME280_humidity;BME280_pressure;Samples;Min_cycle;Max_cycle;Signal;HPM_P1;HPM_P2
2022/10/21 00:00:28;;;;;;;13.83;10.03;;;14.50;99.90;;;;;;4974150;28;20173;-70
2022/10/21 00:02:53;;;;;;;15.47;9.63;;;14.40;99.90;;;;;;4992538;28;20661;-70
2022/10/21 00:05:19;;;;;;;17.83;8.97;;;14.40;99.90;;;;;;4992263;28;20181;-70
2022/10/21 00:07:44;;;;;;;15.20;10.17;;;14.40;99.90;;;;;;4990431;28;20197;-70
2022/10/21 00:10:10;;;;;;;14.30;9.43;;;14.30;99.90;;;;;;4992229;28;20185;-70
2022/10/21 00:12:36;;;;;;;14.70;9.67;;;14.30;99.90;;;;;;4992424;28;20647;-71
2022/10/21 00:15:04;;;;;;;14.03;8.70;;;14.30;99.90;;;;;;4992126;28;20199;-70
2022/10/21 00:17:29;;;;;;;13.97;8.10;;;14.30;99.90;;;;;;4991284;28;20408;-70
2022/10/21 00:19:55;;;;;;;15.10;10.10;;;14.30;99.90;;;;;;4973297;28;20404;-70
2022/10/21 00:22:20;;;;;;;18.87;10.53;;;14.30;99.90;;;;;;4973514;28;20623;-70
2022/10/21 00:24:46;;;;;;;15.20;10.83;;;14.30;99.90;;;;;;4973101;28;20174;-70
2022/10/21 00:27:11;;;;;;;13.77;10.47;;;14.30;99.90;;;;;;4973408;28;20256;-70
2022/10/21 00:29:37;;;;;;;14.87;10.50;;;14.20;99.90;;;;;;4990526;28;20203;-70
2022/10/21 00:32:02;;;;;;;16.10;10.87;;;14.20;99.90;;;;;;4992438;28;20545;-70
2022/10/21 00:34:28;;;;;;;16.07;9.90;;;14.10;99.90;;;;;;4991862;28;20208;-70
2022/10/21 00:36:53;;;;;;;18.13;9.90;;;14.10;99.90;;;;;;4992275;28;20184;-70
2022/10/21 00:39:19;;;;;;;13.50;10.10;;;14.10;99.90;;;;;;4976458;28;20662;-70
2022/10/21 00:41:44;;;;;;;16.23;9.90;;;14.10;99.90;;;;;;4972776;28;20665;-70
2022/10/21 00:44:12;;;;;;;12.83;10.63;;;14.00;99.90;;;;;;4973447;28;20224;-70
2022/10/21 00:46:39;;;;;;;17.67;11.67;;;13.90;99.90;;;;;;4973064;28;20178;-70
2022/10/21 00:49:31;;;;;;;16.63;9.50;;;13.80;99.90;;;;;;4986274;28;20463;-70
2022/10/21 00:51:59;;;;;;;14.87;8.97;;;13.90;99.90;;;;;;4992126;28;20412;-71
2022/10/21 00:54:25;;;;;;;14.77;8.57;;;13.90;99.90;;;;;;4991719;28;20456;-70
2022/10/21 00:56:53;;;;;;;16.97;10.90;;;13.90;99.90;;;;;;4992367;28;20980;-70
2022/10/21 00:59:20;;;;;;;16.10;10.30;;;13.90;99.90;;;;;;4995452;28;20439;-70
2022/10/21 01:01:48;;;;;;;12.97;8.27;;;13.90;99.90;;;;;;4977924;28;20421;-71
2022/10/21 01:04:13;;;;;;;14.07;8.73;;;13.90;99.90;;;;;;4975903;28;20965;-70
2022/10/21 01:06:39;;;;;;;14.40;9.93;;;13.90;99.90;;;;;;4975878;28;20417;-70
2022/10/21 01:09:06;;;;;;;12.30;8.77;;;13.80;99.90;;;;;;4975816;28;20198;-70
2022/10/21 01:11:44;;;;;;;11.37;8.03;;;13.80;99.90;;;;;;4975925;28;20445;-70
2022/10/21 01:14:39;;;;;;;14.00;8.83;;;13.70;99.90;;;;;;4994001;28;20466;-71
2022/10/21 01:17:27;;;;;;;12.17;8.43;;;13.60;99.90;;;;;;4995242;28;20412;-70
2022/10/21 01:20:08;;;;;;;9.83;7.73;;;13.50;99.90;;;;;;4995295;28;21022;-70
2022/10/21 01:22:52;;;;;;;13.20;8.00;;;13.50;99.90;;;;;;4993917;28;20420;-70
2022/10/21 01:25:45;;;;;;;14.60;8.37;;;13.40;99.90;;;;;;4983792;28;20460;-70
2022/10/21 01:28:58;;;;;;;12.73;9.87;;;13.40;99.90;;;;;;4975603;28;20520;-70
2022/10/21 01:31:32;;;;;;;14.23;8.57;;;13.40;99.90;;;;;;4975574;28;20495;-70
2022/10/21 01:34:09;;;;;;;16.73;9.53;;;13.40;99.90;;;;;;4992448;28;20948;-70
2022/10/21 01:36:41;;;;;;;14.50;9.87;;;13.40;99.90;;;;;;4994964;28;20410;-70
2022/10/21 01:39:33;;;;;;;13.13;8.13;;;13.40;99.90;;;;;;4993481;28;20844;-70
2022/10/21 01:42:09;;;;;;;12.10;7.73;;;13.40;99.90;;;;;;4992791;28;20988;-70
2022/10/21 01:44:50;;;;;;;18.47;9.57;;;13.40;99.90;;;;;;4975040;28;20517;-70
2022/10/21 01:47:23;;;;;;;18.20;8.07;;;13.40;99.90;;;;;;4975132;28;20416;-70
2022/10/21 01:49:54;;;;;;;13.70;9.50;;;13.40;99.90;;;;;;4974965;28;20499;-69
2022/10/21 01:52:20;;;;;;;17.23;8.40;;;13.50;99.90;;;;;;4982237;28;20458;-71
2022/10/21 01:54:54;;;;;;;10.00;7.10;;;13.50;99.90;;;;;;4994135;28;20570;-71
2022/10/21 01:57:23;;;;;;;9.77;6.80;;;13.50;99.90;;;;;;4994489;28;20500;-71
2022/10/21 01:59:50;;;;;;;11.40;8.37;;;13.50;99.90;;;;;;4994206;28;20439;-70
2022/10/21 02:02:18;;;;;;;8.43;7.30;;;13.50;99.90;;;;;;4987678;28;20425;-70
2022/10/21 02:04:46;;;;;;;8.43;6.60;;;13.50;99.90;;;;;;4989536;28;20421;-69
2022/10/21 02:07:12;;;;;;;11.97;7.20;;;13.40;99.90;;;;;;4974974;28;20417;-70
2022/10/21 02:09:38;;;;;;;8.60;6.40;;;13.50;99.90;;;;;;4973749;28;20429;-70
2022/10/21 02:12:05;;;;;;;6.73;5.83;;;13.50;99.90;;;;;;4975465;28;20496;-70
2022/10/21 02:14:35;;;;;;;10.33;6.90;;;13.50;99.90;;;;;;4983286;28;20192;-71
2022/10/21 02:17:00;;;;;;;8.87;5.60;;;13.50;99.90;;;;;;4981046;28;20423;-71
2022/10/21 02:19:26;;;;;;;12.20;6.63;;;13.50;99.90;;;;;;4974605;28;20425;-70
2022/10/21 02:21:56;;;;;;;10.13;7.00;;;13.50;99.90;;;;;;4974526;28;20189;-70
2022/10/21 02:24:29;;;;;;;10.03;6.50;;;13.50;99.90;;;;;;4974229;28;20422;-69
2022/10/21 02:26:54;;;;;;;9.80;6.00;;;13.40;99.90;;;;;;4985579;28;20778;-70
2022/10/21 02:29:25;;;;;;;10.70;5.93;;;13.40;99.90;;;;;;4993789;28;20432;-70
2022/10/21 02:32:08;;;;;;;8.23;5.93;;;13.50;99.90;;;;;;4993949;28;20276;-71
2022/10/21 02:34:43;;;;;;;11.13;7.10;;;13.50;99.90;;;;;;4993442;28;20533;-72
2022/10/21 02:37:37;;;;;;;7.13;5.63;;;13.50;99.90;;;;;;4993832;28;20472;-70
2022/10/21 02:40:13;;;;;;;7.13;6.30;;;13.50;99.90;;;;;;4975540;28;20946;-70
2022/10/21 02:42:44;;;;;;;11.17;6.60;;;13.50;99.90;;;;;;4974370;28;20397;-70
2022/10/21 02:45:09;;;;;;;11.13;6.20;;;13.50;99.90;;;;;;4974646;28;20508;-70
2022/10/21 02:47:36;;;;;;;7.50;5.87;;;13.50;99.90;;;;;;4974248;28;20433;-69
2022/10/21 02:50:02;;;;;;;8.80;6.70;;;13.50;99.90;;;;;;4974300;28;20181;-70
2022/10/21 02:52:27;;;;;;;11.60;6.67;;;13.50;99.90;;;;;;4993477;28;20459;-70
2022/10/21 02:54:53;;;;;;;14.23;5.97;;;13.50;99.90;;;;;;4993067;28;20968;-70
2022/10/21 02:57:18;;;;;;;11.40;7.13;;;13.50;99.90;;;;;;4993348;28;20165;-70
2022/10/21 02:59:44;;;;;;;10.20;7.77;;;13.40;99.90;;;;;;4993427;28;20189;-70
2022/10/21 03:02:10;;;;;;;7.87;6.07;;;13.40;99.90;;;;;;4993142;28;20256;-70
2022/10/21 03:04:35;;;;;;;12.60;7.30;;;13.40;99.90;;;;;;4973898;28;20174;-70
2022/10/21 03:07:01;;;;;;;9.00;6.13;;;13.40;99.90;;;;;;4973788;28;20170;-71
2022/10/21 03:09:26;;;;;;;10.37;7.63;;;13.50;99.90;;;;;;4973764;28;20220;-70
2022/10/21 03:11:52;;;;;;;16.83;7.20;;;13.50;99.90;;;;;;4973795;28;20753;-70
2022/10/21 03:14:17;;;;;;;9.83;6.30;;;13.50;99.90;;;;;;4973322;28;20201;-71
2022/10/21 03:16:43;;;;;;;10.50;7.57;;;13.50;99.90;;;;;;4991536;28;20180;-72
2022/10/21 03:19:09;;;;;;;9.90;7.57;;;13.50;99.90;;;;;;4992979;28;20223;-70
2022/10/21 03:21:35;;;;;;;9.93;6.60;;;13.50;99.90;;;;;;4992822;28;20192;-70
2022/10/21 03:24:01;;;;;;;10.33;7.07;;;13.50;99.90;;;;;;4994009;28;20793;-70
2022/10/21 03:26:26;;;;;;;9.53;6.60;;;13.50;99.90;;;;;;4991111;28;20168;-70
2022/10/21 03:28:52;;;;;;;10.13;7.60;;;13.40;99.90;;;;;;4973386;28;20658;-71
2022/10/21 03:31:17;;;;;;;9.40;7.10;;;13.40;99.90;;;;;;4973883;28;20197;-70
2022/10/21 03:33:43;;;;;;;9.27;5.77;;;13.30;99.90;;;;;;4974048;28;20166;-70
2022/10/21 03:36:08;;;;;;;8.67;7.07;;;13.30;99.90;;;;;;4973931;28;20170;-70
2022/10/21 03:38:34;;;;;;;8.30;5.47;;;13.30;99.90;;;;;;4977297;28;20685;-70
2022/10/21 03:40:59;;;;;;;9.77;6.40;;;13.30;99.90;;;;;;4992751;28;20180;-70
2022/10/21 03:43:25;;;;;;;14.70;8.00;;;13.30;99.90;;;;;;4992681;28;20645;-70
2022/10/21 03:45:50;;;;;;;8.37;6.97;;;13.20;99.90;;;;;;4992453;28;20219;-70
2022/10/21 03:48:16;;;;;;;9.80;7.23;;;13.20;99.90;;;;;;4991223;28;20208;-70
2022/10/21 03:50:42;;;;;;;13.10;6.57;;;13.30;99.90;;;;;;4985420;28;20264;-70
2022/10/21 03:53:07;;;;;;;12.10;6.60;;;13.30;99.90;;;;;;5004404;28;20996;-70
2022/10/21 03:55:33;;;;;;;9.33;6.53;;;13.20;99.90;;;;;;4973036;28;20212;-70
2022/10/21 03:57:58;;;;;;;11.53;6.30;;;13.30;99.90;;;;;;4973862;28;20193;-70
2022/10/21 04:00:24;;;;;;;7.10;6.37;;;13.30;99.90;;;;;;4973695;28;20509;-70
2022/10/21 04:02:49;;;;;;;12.90;7.70;;;13.40;99.90;;;;;;5007517;28;20169;-71
2022/10/21 04:05:15;;;;;;;10.10;7.20;;;13.40;99.90;;;;;;4981783;28;20670;-71
2022/10/21 04:07:41;;;;;;;10.03;7.77;;;13.40;99.90;;;;;;4972974;28;20181;-71
2022/10/21 04:10:08;;;;;;;11.73;8.07;;;13.40;99.90;;;;;;4973084;28;20459;-70
2022/10/21 04:12:34;;;;;;;13.73;7.63;;;13.50;99.90;;;;;;4973007;28;20170;-70
2022/10/21 04:15:00;;;;;;;14.73;7.70;;;13.50;99.90;;;;;;5007374;28;20897;-70
2022/10/21 04:17:25;;;;;;;13.57;8.23;;;13.50;99.90;;;;;;4992561;28;20435;-70
2022/10/21 04:19:51;;;;;;;10.53;7.70;;;13.50;99.90;;;;;;4992387;28;20161;-70
2022/10/21 04:22:16;;;;;;;11.57;7.10;;;13.60;99.90;;;;;;4991934;28;20173;-70
2022/10/21 04:24:42;;;;;;;11.70;7.50;;;13.60;99.90;;;;;;4992123;28;20180;-70
2022/10/21 04:27:07;;;;;;;11.70;6.77;;;13.60;99.90;;;;;;4991651;28;20619;-70
2022/10/21 04:29:33;;;;;;;12.37;7.67;;;13.60;99.90;;;;;;4992259;28;20575;-71
2022/10/21 04:31:58;;;;;;;9.67;6.77;;;13.60;99.90;;;;;;4992035;28;20181;-70
2022/10/21 04:34:24;;;;;;;9.23;7.70;;;13.60;99.90;;;;;;4996281;28;20201;-70
2022/10/21 04:36:49;;;;;;;13.50;7.23;;;13.70;99.90;;;;;;4996051;28;20202;-70
2022/10/21 04:39:15;;;;;;;7.80;6.40;;;13.70;99.90;;;;;;4987346;28;20197;-72
2022/10/21 04:41:41;;;;;;;12.90;9.57;;;13.70;99.90;;;;;;4976533;28;20196;-70
2022/10/21 04:44:06;;;;;;;13.10;8.13;;;13.70;99.90;;;;;;4976402;28;20178;-70
2022/10/21 04:46:32;;;;;;;14.97;8.03;;;13.70;99.90;;;;;;4976045;28;20192;-70
2022/10/21 04:48:57;;;;;;;13.33;7.73;;;13.80;99.90;;;;;;4976109;28;20212;-70
2022/10/21 04:51:23;;;;;;;11.23;7.80;;;13.80;99.90;;;;;;4998604;28;20181;-70
2022/10/21 04:53:48;;;;;;;8.10;6.20;;;13.70;99.90;;;;;;4995765;28;20203;-70
2022/10/21 04:56:14;;;;;;;9.50;6.53;;;13.70;99.90;;;;;;4995379;28;20165;-70
2022/10/21 04:58:39;;;;;;;15.13;6.10;;;13.70;99.90;;;;;;4995565;28;20185;-71
2022/10/21 05:01:05;;;;;;;10.90;7.80;;;13.80;99.90;;;;;;4987162;28;20228;-70
2022/10/21 05:03:30;;;;;;;13.47;9.30;;;13.80;99.90;;;;;;4976092;28;20709;-70
2022/10/21 05:05:56;;;;;;;8.03;6.97;;;13.80;99.90;;;;;;4975917;28;20265;-70
2022/10/21 05:08:22;;;;;;;10.70;7.03;;;13.80;99.90;;;;;;4976615;28;20200;-70
2022/10/21 05:10:47;;;;;;;8.77;7.27;;;13.80;99.90;;;;;;4981468;28;20196;-70
2022/10/21 05:13:14;;;;;;;8.50;6.30;;;13.80;99.90;;;;;;4995284;28;20627;-70
2022/10/21 05:15:39;;;;;;;9.10;6.83;;;13.90;99.90;;;;;;4994809;28;20279;-70
2022/10/21 05:18:05;;;;;;;9.03;6.20;;;13.90;99.90;;;;;;4995449;28;20515;-70
2022/10/21 05:20:30;;;;;;;7.80;6.50;;;13.90;99.90;;;;;;4995345;28;20268;-70
2022/10/21 05:22:56;;;;;;;8.23;6.33;;;13.90;99.90;;;;;;4988928;28;20182;-70
2022/10/21 05:25:21;;;;;;;7.00;5.20;;;13.90;99.90;;;;;;4975905;28;20192;-70
2022/10/21 05:27:47;;;;;;;7.60;5.43;;;13.90;99.90;;;;;;4976004;28;20208;-70
2022/10/21 05:30:13;;;;;;;11.53;7.80;;;14.00;99.90;;;;;;4975978;28;20200;-70
2022/10/21 05:32:40;;;;;;;13.67;7.23;;;14.00;99.90;;;;;;4975573;28;20170;-70
2022/10/21 05:35:06;;;;;;;8.47;5.83;;;14.00;99.90;;;;;;4983560;28;20467;-70
2022/10/21 05:37:32;;;;;;;6.40;4.87;;;14.00;99.90;;;;;;4994710;28;20404;-70
2022/10/21 05:39:57;;;;;;;7.93;5.13;;;14.00;99.90;;;;;;4994822;28;20749;-70
2022/10/21 05:42:23;;;;;;;15.47;5.53;;;14.00;99.90;;;;;;4994760;28;20416;-71
2022/10/21 05:44:48;;;;;;;6.73;4.53;;;14.00;99.90;;;;;;4994016;28;20184;-71
2022/10/21 05:47:14;;;;;;;4.87;4.30;;;14.10;99.90;;;;;;4985790;28;20182;-71
2022/10/21 05:49:39;;;;;;;6.87;4.60;;;14.10;99.90;;;;;;4974994;28;20263;-70
2022/10/21 05:52:05;;;;;;;7.60;5.30;;;14.10;99.90;;;;;;4975370;28;20655;-71
2022/10/21 05:54:30;;;;;;;4.80;4.07;;;14.10;99.90;;;;;;4974806;28;20818;-71
2022/10/21 05:56:56;;;;;;;5.77;4.27;;;14.10;99.90;;;;;;4975055;28;20177;-71
2022/10/21 05:59:23;;;;;;;6.80;4.80;;;14.10;99.90;;;;;;5008915;28;20193;-71
2022/10/21 06:01:48;;;;;;;9.03;5.73;;;14.20;99.90;;;;;;4994397;28;20429;-70
2022/10/21 06:04:14;;;;;;;6.20;5.00;;;14.20;99.90;;;;;;4994118;28;20408;-68
2022/10/21 06:06:39;;;;;;;6.40;4.40;;;14.10;99.90;;;;;;4994245;28;20180;-71
2022/10/21 06:09:05;;;;;;;8.13;4.43;;;14.10;99.90;;;;;;4994190;28;20263;-69
2022/10/21 06:11:31;;;;;;;6.53;4.40;;;14.10;99.90;;;;;;4990976;28;20200;-69
2022/10/21 06:13:56;;;;;;;6.60;4.73;;;14.10;99.90;;;;;;4974927;28;20184;-69
2022/10/21 06:16:22;;;;;;;4.90;3.63;;;14.10;99.90;;;;;;4974904;28;20185;-69
2022/10/21 06:18:48;;;;;;;5.67;4.37;;;14.00;99.90;;;;;;4975378;28;20594;-69
2022/10/21 06:21:14;;;;;;;5.80;5.17;;;14.00;99.90;;;;;;4975201;28;20173;-69
2022/10/21 06:23:39;;;;;;;7.63;4.67;;;14.00;99.90;;;;;;4981210;28;20255;-69
2022/10/21 06:26:11;;;;;;;5.57;4.60;;;14.00;99.90;;;;;;4994127;28;20489;-69
2022/10/21 06:28:38;;;;;;;6.30;4.13;;;14.00;99.90;;;;;;4994475;28;20200;-69
2022/10/21 06:31:05;;;;;;;4.30;3.90;;;14.00;99.90;;;;;;4993994;28;20419;-70
2022/10/21 06:33:31;;;;;;;6.93;4.40;;;14.00;99.90;;;;;;4993616;28;20431;-69
2022/10/21 06:35:57;;;;;;;5.47;4.27;;;14.10;99.90;;;;;;4983817;28;20464;-69
2022/10/21 06:38:24;;;;;;;8.60;4.07;;;14.10;99.90;;;;;;4974232;28;20429;-70
2022/10/21 06:40:50;;;;;;;6.20;4.10;;;14.10;99.90;;;;;;4974322;28;20208;-70
2022/10/21 06:43:16;;;;;;;5.17;4.40;;;14.10;99.90;;;;;;4974061;28;20772;-69
2022/10/21 06:45:42;;;;;;;5.03;3.77;;;14.10;99.90;;;;;;4973824;28;20413;-69
2022/10/21 06:48:07;;;;;;;5.70;3.90;;;14.20;99.90;;;;;;4985982;28;20204;-69
2022/10/21 06:50:33;;;;;;;5.03;3.90;;;14.30;99.90;;;;;;4993507;28;20169;-70
2022/10/21 06:52:58;;;;;;;9.37;5.50;;;14.30;99.90;;;;;;4993433;28;20585;-69
2022/10/21 06:55:24;;;;;;;5.17;3.87;;;14.30;99.90;;;;;;4992314;28;20196;-69
2022/10/21 06:57:50;;;;;;;20.90;4.50;;;14.40;99.90;;;;;;4993218;28;20185;-69
2022/10/21 07:00:16;;;;;;;7.73;4.40;;;14.40;99.90;;;;;;4978513;28;20174;-69
2022/10/21 07:02:41;;;;;;;5.60;4.47;;;14.50;99.90;;;;;;4974447;28;20201;-69
2022/10/21 07:05:07;;;;;;;10.10;4.97;;;14.50;99.90;;;;;;4973942;28;20405;-70
2022/10/21 07:07:33;;;;;;;5.47;3.60;;;14.50;99.90;;;;;;4983130;28;20191;-69
2022/10/21 07:09:59;;;;;;;6.00;4.10;;;14.50;99.90;;;;;;4993144;28;20177;-69
2022/10/21 07:12:26;;;;;;;5.37;4.73;;;14.50;99.90;;;;;;4992881;28;20404;-69
2022/10/21 07:14:53;;;;;;;7.60;4.53;;;14.50;99.90;;;;;;4992719;28;20200;-69
2022/10/21 07:17:19;;;;;;;10.60;6.00;;;14.60;99.90;;;;;;4985958;28;20493;-69
2022/10/21 07:19:44;;;;;;;7.87;5.90;;;14.60;99.90;;;;;;5004930;28;20447;-68
2022/10/21 07:22:10;;;;;;;14.43;5.80;;;14.60;99.90;;;;;;4973536;28;20424;-71
2022/10/21 07:24:35;;;;;;;9.20;5.43;;;14.70;99.90;;;;;;4973250;28;20681;-69
2022/10/21 07:27:01;;;;;;;12.57;6.33;;;14.70;99.90;;;;;;4981063;28;20184;-69
2022/10/21 07:29:27;;;;;;;8.30;5.70;;;14.80;99.90;;;;;;4991989;28;20271;-69
2022/10/21 07:31:53;;;;;;;9.80;5.20;;;14.80;99.90;;;;;;4993282;28;20415;-70
2022/10/21 07:34:18;;;;;;;10.90;5.77;;;14.80;99.90;;;;;;4992422;28;20251;-69
2022/10/21 07:36:47;;;;;;;6.93;5.77;;;14.90;99.90;;;;;;4979049;28;20188;-70
2022/10/21 07:39:14;;;;;;;9.80;4.83;;;15.00;99.90;;;;;;4973269;28;20598;-70
2022/10/21 07:41:43;;;;;;;6.70;5.30;;;15.00;99.90;;;;;;4973323;28;20422;-69
2022/10/21 07:44:10;;;;;;;6.77;5.13;;;15.00;99.90;;;;;;4973153;28;20451;-70
2022/10/21 07:46:40;;;;;;;8.40;5.07;;;15.10;99.90;;;;;;4984247;28;20431;-70
2022/10/21 07:49:07;;;;;;;5.47;4.77;;;15.00;99.90;;;;;;4992642;28;20483;-69
2022/10/21 07:51:33;;;;;;;13.47;6.23;;;15.10;99.90;;;;;;4992738;28;20422;-71
2022/10/21 07:53:59;;;;;;;11.83;6.80;;;15.10;99.90;;;;;;4992426;28;20487;-69
2022/10/21 07:56:32;;;;;;;7.10;4.90;;;15.10;99.90;;;;;;4992274;28;20180;-71
2022/10/21 07:58:58;;;;;;;8.77;6.73;;;15.10;99.90;;;;;;4977120;28;20537;-70
2022/10/21 08:01:24;;;;;;;7.13;5.57;;;15.10;99.90;;;;;;4973261;28;20563;-69
2022/10/21 08:03:52;;;;;;;10.00;4.90;;;15.20;99.90;;;;;;4973188;28;20492;-70
2022/10/21 08:06:18;;;;;;;7.67;5.20;;;15.10;99.90;;;;;;4973621;28;20177;-69
2022/10/21 08:08:44;;;;;;;4.87;3.53;;;15.20;99.90;;;;;;4976953;28;20946;-69
2022/10/21 08:11:10;;;;;;;7.43;4.07;;;15.30;99.90;;;;;;4993196;28;20667;-69
2022/10/21 08:13:40;;;;;;;5.00;3.33;;;15.30;99.90;;;;;;4976851;28;20492;-70
2022/10/21 08:16:05;;;;;;;5.37;4.03;;;15.30;99.90;;;;;;4976668;28;20561;-69
2022/10/21 08:18:31;;;;;;;5.53;3.93;;;15.30;99.90;;;;;;4984514;28;20438;-70
2022/10/21 08:20:57;;;;;;;6.63;3.60;;;15.30;99.90;;;;;;4976941;28;20611;-70
2022/10/21 08:23:25;;;;;;;14.77;5.20;;;15.20;99.90;;;;;;4976913;28;20448;-70
2022/10/21 08:25:56;;;;;;;5.03;3.80;;;15.10;99.90;;;;;;4976411;28;20666;-70
2022/10/21 08:28:24;;;;;;;7.53;3.90;;;15.10;99.90;;;;;;4976538;28;20437;-70
2022/10/21 08:30:51;;;;;;;7.30;4.50;;;15.10;99.90;;;;;;4976575;28;20430;-69
2022/10/21 08:33:17;;;;;;;9.23;5.70;;;15.10;99.90;;;;;;4977094;28;20424;-70
2022/10/21 08:35:43;;;;;;;9.90;5.20;;;15.10;99.90;;;;;;4995458;28;20468;-69
2022/10/21 08:38:08;;;;;;;15.23;5.40;;;15.10;99.90;;;;;;4994543;28;20674;-69
2022/10/21 08:40:41;;;;;;;6.00;4.60;;;15.10;99.90;;;;;;4996025;28;20177;-69
2022/10/21 08:43:08;;;;;;;5.83;4.50;;;15.10;99.90;;;;;;4996472;28;20717;-70
2022/10/21 08:45:47;;;;;;;7.70;4.83;;;15.10;99.90;;;;;;4995095;28;20462;-69
2022/10/21 08:48:18;;;;;;;6.53;5.23;;;15.10;99.90;;;;;;4976255;28;20527;-70
2022/10/21 08:50:47;;;;;;;14.10;5.23;;;15.10;99.90;;;;;;4984699;28;20993;-70
2022/10/21 08:53:34;;;;;;;8.83;4.87;;;15.10;99.90;;;;;;4995713;28;20407;-69
2022/10/21 08:56:08;;;;;;;8.57;6.00;;;15.10;99.90;;;;;;4995484;28;20522;-69
2022/10/21 08:58:34;;;;;;;22.40;5.63;;;15.20;99.90;;;;;;4993697;28;20455;-69
2022/10/21 09:01:20;;;;;;;7.90;4.97;;;15.10;99.90;;;;;;4995419;28;20400;-70
2022/10/21 09:03:53;;;;;;;7.60;4.73;;;15.20;99.90;;;;;;4995427;28;20257;-69
2022/10/21 09:06:33;;;;;;;9.90;5.60;;;15.20;99.90;;;;;;4995268;28;20432;-70
2022/10/21 09:09:21;;;;;;;7.70;5.33;;;15.30;99.90;;;;;;4995035;28;20504;-70
2022/10/21 09:12:13;;;;;;;9.07;5.80;;;15.30;99.90;;;;;;4975976;28;20538;-68
2022/10/21 09:15:06;;;;;;;5.37;4.10;;;15.30;99.90;;;;;;4974759;28;21001;-69
2022/10/21 09:17:45;;;;;;;6.90;5.23;;;15.20;99.90;;;;;;4975547;28;20405;-69
2022/10/21 09:20:44;;;;;;;4.60;4.10;;;15.20;99.90;;;;;;4976086;28;20409;-70
2022/10/21 09:23:41;;;;;;;12.40;3.87;;;15.20;99.90;;;;;;4976021;28;20985;-69
2022/10/21 09:26:17;;;;;;;11.40;5.20;;;15.30;99.90;;;;;;4975396;28;20401;-70
2022/10/21 09:28:45;;;;;;;4.70;3.57;;;15.30;99.90;;;;;;4975601;28;20431;-69
2022/10/21 09:31:15;;;;;;;8.50;3.40;;;15.40;99.90;;;;;;4993421;28;20478;-70
2022/10/21 09:33:45;;;;;;;5.70;2.67;;;15.50;99.90;;;;;;4995039;28;20404;-70
2022/10/21 09:36:23;;;;;;;3.80;3.07;;;15.50;99.90;;;;;;4994547;28;20452;-69
2022/10/21 09:39:06;;;;;;;5.93;5.30;;;15.60;99.90;;;;;;4994950;28;20424;-70
2022/10/21 09:41:37;;;;;;;5.70;4.00;;;15.60;99.90;;;;;;4974299;28;20935;-69
2022/10/21 09:44:03;;;;;;;5.93;4.50;;;15.70;99.90;;;;;;4975305;28;20570;-69
2022/10/21 09:46:28;;;;;;;8.00;4.03;;;15.80;99.90;;;;;;4975248;28;20496;-70
2022/10/21 09:48:55;;;;;;;6.10;4.70;;;15.90;99.90;;;;;;4975308;28;20285;-70
2022/10/21 09:51:31;;;;;;;5.20;4.23;;;15.90;99.90;;;;;;4975176;28;20232;-69
2022/10/21 09:54:04;;;;;;;12.73;4.23;;;16.00;99.90;;;;;;4975333;28;20409;-69
2022/10/21 09:56:57;;;;;;;6.60;4.73;;;16.00;99.90;;;;;;4974956;28;20496;-69
2022/10/21 09:59:24;;;;;;;7.33;3.77;;;16.10;99.90;;;;;;4980206;28;20510;-70
2022/10/21 10:01:50;;;;;;;4.93;3.80;;;16.20;99.90;;;;;;4992993;28;20435;-69
2022/10/21 10:04:30;;;;;;;4.60;3.90;;;16.30;99.90;;;;;;4994346;28;20427;-69
2022/10/21 10:07:00;;;;;;;4.70;3.40;;;16.30;99.90;;;;;;4994660;28;20447;-69
2022/10/21 10:09:33;;;;;;;6.07;3.10;;;16.40;99.90;;;;;;4986133;28;20500;-69
2022/10/21 10:12:11;;;;;;;3.00;2.00;;;16.40;99.90;;;;;;4974877;28;20409;-69
2022/10/21 10:14:43;;;;;;;2.87;1.60;;;16.50;99.90;;;;;;5005933;28;20468;-69
2022/10/21 10:17:34;;;;;;;1.90;1.60;;;16.60;99.90;;;;;;4974835;28;20455;-69
2022/10/21 10:20:18;;;;;;;1.93;1.00;;;16.50;99.90;;;;;;4986675;28;20478;-70
2022/10/21 10:22:59;;;;;;;5.30;1.67;;;16.50;99.90;;;;;;4993992;28;20516;-69
2022/10/21 10:25:30;;;;;;;2.53;1.33;;;16.40;99.90;;;;;;4993765;28;20821;-70
2022/10/21 10:27:58;;;;;;;3.37;1.20;;;16.30;99.90;;;;;;4993879;28;20431;-70
2022/10/21 10:30:37;;;;;;;1.87;1.27;;;16.30;99.90;;;;;;4974644;28;20767;-70
2022/10/21 10:33:12;;;;;;;4.23;1.60;;;16.30;99.90;;;;;;4974220;28;20429;-69
2022/10/21 10:35:38;;;;;;;2.03;1.47;;;16.20;99.90;;;;;;4974156;28;20456;-71
2022/10/21 10:38:05;;;;;;;4.27;2.17;;;16.30;99.90;;;;;;4974252;28;20914;-69
2022/10/21 10:40:38;;;;;;;11.83;2.10;;;16.30;99.90;;;;;;4992200;28;20416;-70
2022/10/21 10:43:28;;;;;;;2.93;1.90;;;16.30;99.90;;;;;;4993776;28;20401;-72
2022/10/21 10:46:06;;;;;;;4.17;2.27;;;16.40;99.90;;;;;;4993734;28;20433;-70
2022/10/21 10:48:43;;;;;;;5.03;2.47;;;16.40;99.90;;;;;;4993870;28;20447;-69
2022/10/21 10:51:31;;;;;;;2.20;1.70;;;16.50;99.90;;;;;;5122999;27;20343;-69
2022/10/21 10:54:06;;;;;;;4.07;2.37;;;16.60;99.90;;;;;;5123311;28;20396;-69
2022/10/21 10:56:45;;;;;;;2.90;1.70;;;16.70;99.90;;;;;;5090386;28;20391;-69
2022/10/21 10:59:21;;;;;;;4.10;1.50;;;16.80;99.90;;;;;;5090629;28;20447;-69
2022/10/21 11:02:07;;;;;;;5.23;2.10;;;16.90;99.90;;;;;;5089731;28;20506;-70
2022/10/21 11:04:56;;;;;;;2.30;1.80;;;17.00;99.90;;;;;;5066313;28;20408;-69
2022/10/21 11:07:43;;;;;;;1.70;1.40;;;17.10;99.90;;;;;;5069192;28;20399;-69
2022/10/21 11:10:27;;;;;;;3.43;2.40;;;17.30;99.90;;;;;;5070495;28;20448;-70
2022/10/21 11:12:53;;;;;;;2.63;1.77;;;17.50;99.90;;;;;;5089096;28;20403;-69
2022/10/21 11:15:23;;;;;;;2.90;1.93;;;17.70;99.90;;;;;;5087544;28;20412;-69
2022/10/21 11:18:13;;;;;;;2.50;2.20;;;17.80;99.90;;;;;;5087735;28;20188;-70
2022/10/21 11:21:05;;;;;;;4.17;1.90;;;18.00;99.90;;;;;;5082946;28;20496;-69
2022/10/21 11:24:20;;;;;;;3.73;1.73;;;18.30;99.90;;;;;;5068695;28;20397;-70
2022/10/21 11:26:58;;;;;;;5.13;1.83;;;18.50;99.90;;;;;;5067302;28;20415;-70
2022/10/21 11:29:55;;;;;;;4.60;1.87;;;18.60;99.90;;;;;;5068472;28;20444;-69
2022/10/21 11:32:59;;;;;;;6.07;2.77;;;18.70;99.90;;;;;;5048128;28;20405;-70
2022/10/21 11:35:39;;;;;;;3.03;2.20;;;18.70;99.90;;;;;;5048262;28;20404;-70
2022/10/21 11:38:39;;;;;;;9.37;2.93;;;18.70;99.90;;;;;;5080725;28;20429;-70
2022/10/21 11:41:17;;;;;;;3.37;2.10;;;18.70;99.90;;;;;;5070648;28;20795;-71
2022/10/21 11:43:56;;;;;;;3.90;1.87;;;18.80;99.90;;;;;;5087294;28;20415;-70
2022/10/21 11:46:39;;;;;;;4.30;1.70;;;18.80;99.90;;;;;;5087269;28;20422;-70
2022/10/21 11:49:24;;;;;;;3.37;2.00;;;19.00;99.90;;;;;;5088037;28;20430;-71
2022/10/21 11:52:13;;;;;;;7.03;1.80;;;19.50;99.90;;;;;;5068235;28;20428;-70
2022/10/21 11:54:57;;;;;;;3.37;1.90;;;20.20;99.90;;;;;;5066319;28;20416;-70
2022/10/21 11:57:49;;;;;;;2.20;1.80;;;20.90;99.90;;;;;;5067991;28;20407;-70
2022/10/21 12:00:24;;;;;;;6.27;2.27;;;22.10;99.90;;;;;;5074236;28;20504;-70
2022/10/21 12:03:10;;;;;;;2.77;1.57;;;23.80;99.90;;;;;;5074179;28;20410;-69
2022/10/21 12:05:45;;;;;;;2.10;1.80;;;25.50;99.90;;;;;;5074459;28;20428;-69
2022/10/21 12:08:27;;;;;;;4.03;2.10;;;26.20;99.90;;;;;;5074555;28;20420;-70
2022/10/21 12:11:06;;;;;;;5.43;2.03;;;26.70;99.90;;;;;;5060185;28;20453;-71
2022/10/21 12:13:44;;;;;;;2.67;1.33;;;27.50;99.90;;;;;;5054655;28;20409;-70
2022/10/21 12:16:15;;;;;;;2.77;2.13;;;29.00;99.90;;;;;;5054261;28;20401;-70
2022/10/21 12:18:44;;;;;;;2.50;2.30;;;29.80;99.90;;;;;;5054429;28;20837;-72
2022/10/21 12:21:15;;;;;;;3.40;2.43;;;30.00;98.20;;;;;;5070735;28;20990;-70
2022/10/21 12:23:42;;;;;;;4.53;2.40;;;30.80;99.90;;;;;;5074444;28;20480;-70
2022/10/21 12:26:08;;;;;;;2.73;2.00;;;31.80;87.30;;;;;;5073732;28;20494;-70
2022/10/21 12:28:46;;;;;;;2.53;2.00;;;32.00;74.70;;;;;;5073013;28;20432;-70
2022/10/21 12:31:29;;;;;;;3.43;2.80;;;31.90;72.60;;;;;;5074198;28;20194;-70
2022/10/21 12:33:56;;;;;;;3.30;2.07;;;30.70;76.20;;;;;;5034146;28;20409;-70
2022/10/21 12:36:45;;;;;;;2.30;2.00;;;30.20;91.30;;;;;;5033981;28;20402;-69
2022/10/21 12:39:31;;;;;;;4.10;2.70;;;30.20;94.10;;;;;;5034053;28;20469;-71
2022/10/21 12:42:13;;;;;;;3.07;2.07;;;29.20;99.90;;;;;;5042433;28;20414;-69
2022/10/21 12:44:47;;;;;;;3.63;2.27;;;28.10;99.90;;;;;;5059826;28;20416;-69
2022/10/21 12:47:29;;;;;;;2.20;1.93;;;26.60;99.90;;;;;;5073979;28;21035;-70
2022/10/21 12:50:13;;;;;;;2.50;2.27;;;25.70;99.90;;;;;;5073758;28;20452;-70
2022/10/21 12:52:40;;;;;;;4.70;2.77;;;24.80;99.90;;;;;;5073972;28;20412;-70
2022/10/21 12:55:21;;;;;;;4.13;1.80;;;24.50;99.90;;;;;;5070572;28;20515;-69
2022/10/21 12:57:58;;;;;;;5.50;2.20;;;24.00;99.90;;;;;;5053704;28;20435;-69
2022/10/21 13:00:27;;;;;;;2.47;2.00;;;23.60;99.90;;;;;;5053747;28;20825;-69
2022/10/21 13:03:17;;;;;;;2.23;1.83;;;23.30;99.90;;;;;;5053692;28;20420;-70